createdAt,value
2023-05-18T00:00:30.715Z,4.40
2023-05-18T00:02:58.195Z,4.40
2023-05-18T00:05:25.257Z,4.30
2023-05-18T00:07:53.249Z,4.30
2023-05-18T00:10:20.426Z,4.20
2023-05-18T00:12:47.989Z,4.20
2023-05-18T00:15:14.870Z,4.30
2023-05-18T00:17:42.560Z,4.20
2023-05-18T00:20:09.979Z,4.00
2023-05-18T00:22:36.973Z,3.90
2023-05-18T00:25:04.104Z,3.90
2023-05-18T00:27:31.560Z,3.90
2023-05-18T00:29:58.442Z,3.90
2023-05-18T00:32:25.577Z,3.90
2023-05-18T00:34:52.509Z,3.90
2023-05-18T00:37:19.351Z,3.90
2023-05-18T00:39:46.353Z,3.80
2023-05-18T00:42:13.248Z,3.80
2023-05-18T00:44:40.080Z,3.80
2023-05-18T00:47:06.935Z,3.70
2023-05-18T00:49:33.792Z,3.80
2023-05-18T00:52:02.658Z,3.70
2023-05-18T00:54:29.760Z,3.60
2023-05-18T00:57:01.997Z,3.50
2023-05-18T00:59:30.632Z,3.40
2023-05-18T01:01:58.239Z,3.40
2023-05-18T01:04:25.929Z,3.40
2023-05-18T01:06:56.483Z,3.50
2023-05-18T01:09:23.808Z,3.50
2023-05-18T01:11:53.699Z,3.40
2023-05-18T01:14:33.100Z,3.40
2023-05-18T01:17:27.160Z,3.30
2023-05-18T01:20:09.910Z,3.30
2023-05-18T01:22:50.660Z,3.30
2023-05-18T01:25:36.607Z,3.20
2023-05-18T01:28:13.628Z,3.20
2023-05-18T01:30:42.434Z,3.10
2023-05-18T01:33:10.676Z,3.10
2023-05-18T01:35:41.577Z,3.10
2023-05-18T01:38:08.447Z,3.10
2023-05-18T01:40:43.333Z,3.10
2023-05-18T01:43:18.535Z,3.00
2023-05-18T01:45:48.949Z,2.90
2023-05-18T01:48:21.531Z,2.90
2023-05-18T01:50:49.876Z,2.90
2023-05-18T01:53:38.099Z,3.00
2023-05-18T01:56:08.830Z,3.00
2023-05-18T01:58:37.320Z,3.10
2023-05-18T02:01:04.955Z,3.10
2023-05-18T02:03:33.418Z,2.90
2023-05-18T02:06:02.573Z,3.00
2023-05-18T02:08:29.719Z,2.80
2023-05-18T02:10:56.590Z,2.80
2023-05-18T02:13:23.606Z,2.80
2023-05-18T02:15:50.631Z,2.70
2023-05-18T02:18:17.599Z,2.60
2023-05-18T02:20:44.471Z,2.60
2023-05-18T02:23:11.510Z,2.60
2023-05-18T02:25:38.688Z,2.50
2023-05-18T02:28:05.742Z,2.40
2023-05-18T02:30:33.361Z,2.40
2023-05-18T02:33:00.360Z,2.40
2023-05-18T02:35:27.361Z,2.20
2023-05-18T02:37:55.886Z,2.20
2023-05-18T02:40:22.784Z,2.10
2023-05-18T02:42:49.642Z,2.10
2023-05-18T02:45:16.499Z,2.20
2023-05-18T02:47:46.533Z,2.30
2023-05-18T02:50:13.658Z,2.30
2023-05-18T02:52:41.690Z,2.20
2023-05-18T02:55:09.023Z,2.20
2023-05-18T02:57:35.871Z,2.10
2023-05-18T03:00:02.928Z,2.10
2023-05-18T03:02:30.743Z,2.10
2023-05-18T03:04:57.719Z,2.10
2023-05-18T03:07:24.672Z,2.10
2023-05-18T03:09:51.533Z,2.20
2023-05-18T03:12:18.406Z,2.20
2023-05-18T03:14:45.482Z,2.20
2023-05-18T03:17:12.366Z,2.20
2023-05-18T03:19:39.333Z,2.10
2023-05-18T03:22:06.209Z,2.00
2023-05-18T03:24:40.349Z,2.00
2023-05-18T03:27:07.570Z,2.00
2023-05-18T03:29:34.686Z,1.90
2023-05-18T03:32:01.516Z,1.90
2023-05-18T03:34:28.474Z,1.90
2023-05-18T03:36:55.523Z,1.90
2023-05-18T03:39:22.361Z,2.00
2023-05-18T03:41:49.346Z,1.90
2023-05-18T03:44:16.259Z,2.00
2023-05-18T03:46:43.222Z,1.90
2023-05-18T03:49:10.163Z,1.90
2023-05-18T03:51:37.032Z,1.90
2023-05-18T03:54:04.005Z,2.10
2023-05-18T03:56:31.590Z,2.10
2023-05-18T03:58:59.309Z,2.00
2023-05-18T04:01:30.208Z,2.20
2023-05-18T04:03:57.872Z,2.10
2023-05-18T04:06:26.224Z,2.10
2023-05-18T04:08:53.439Z,2.10
2023-05-18T04:11:21.468Z,2.20
2023-05-18T04:13:49.745Z,2.20
2023-05-18T04:16:16.803Z,2.20
2023-05-18T04:18:44.381Z,2.30
2023-05-18T04:21:11.831Z,2.30
2023-05-18T04:23:40.827Z,2.40
2023-05-18T04:26:09.078Z,2.40
2023-05-18T04:28:37.636Z,2.30
2023-05-18T04:31:05.099Z,2.40
2023-05-18T04:33:34.128Z,2.40
2023-05-18T04:36:04.942Z,2.40
2023-05-18T04:38:34.591Z,2.50
2023-05-18T04:41:05.275Z,2.60
2023-05-18T04:43:32.138Z,2.70
2023-05-18T04:45:59.170Z,2.80
2023-05-18T04:48:26.168Z,2.80
2023-05-18T04:50:54.392Z,2.80
2023-05-18T04:53:21.705Z,2.90
2023-05-18T04:55:50.140Z,2.90
2023-05-18T04:58:17.081Z,3.00
2023-05-18T05:00:45.053Z,3.00
2023-05-18T05:03:11.933Z,3.10
2023-05-18T05:05:38.860Z,3.10
2023-05-18T05:08:06.666Z,3.30
2023-05-18T05:10:33.569Z,3.30
2023-05-18T05:13:00.737Z,3.50
2023-05-18T05:15:27.686Z,3.60
2023-05-18T05:17:54.572Z,3.70
2023-05-18T05:20:21.627Z,3.90
2023-05-18T05:22:48.569Z,3.90
2023-05-18T05:25:15.825Z,4.10
2023-05-18T05:27:42.699Z,4.20
2023-05-18T05:30:10.073Z,4.30
2023-05-18T05:32:37.245Z,4.40
2023-05-18T05:35:05.008Z,4.50
2023-05-18T05:37:32.007Z,4.50
2023-05-18T05:39:59.384Z,4.70
2023-05-18T05:42:26.772Z,4.80
2023-05-18T05:44:53.684Z,4.90
2023-05-18T05:47:20.646Z,5.10
2023-05-18T05:49:47.546Z,5.30
2023-05-18T05:52:14.493Z,5.50
2023-05-18T05:54:41.919Z,5.70
2023-05-18T05:57:08.804Z,5.80
2023-05-18T05:59:35.879Z,6.00
2023-05-18T06:02:02.875Z,6.20
2023-05-18T06:04:30.069Z,6.30
2023-05-18T06:06:57.783Z,6.40
2023-05-18T06:09:24.721Z,6.60
2023-05-18T06:11:52.872Z,6.60
2023-05-18T06:14:19.842Z,6.70
2023-05-18T06:16:47.144Z,6.80
2023-05-18T06:19:14.049Z,7.00
2023-05-18T06:21:41.036Z,7.10
2023-05-18T06:24:08.104Z,7.30
2023-05-18T06:26:34.980Z,7.30
2023-05-18T06:29:01.843Z,7.40
2023-05-18T06:31:30.316Z,7.70
2023-05-18T06:33:57.544Z,7.90
2023-05-18T06:36:24.462Z,8.10
2023-05-18T06:38:51.381Z,8.30
2023-05-18T06:41:18.317Z,8.50
2023-05-18T06:43:45.251Z,8.70
2023-05-18T06:46:23.189Z,8.90
2023-05-18T06:48:50.178Z,9.10
2023-05-18T06:51:17.059Z,9.40
2023-05-18T06:53:44.392Z,9.60
2023-05-18T06:56:14.098Z,9.80
2023-05-18T06:58:41.789Z,9.80
2023-05-18T07:01:09.458Z,9.90
2023-05-18T07:03:40.455Z,10.10
2023-05-18T07:06:07.455Z,10.40
2023-05-18T07:08:36.973Z,10.40
2023-05-18T07:11:04.540Z,10.40
2023-05-18T07:13:31.537Z,10.60
2023-05-18T07:15:58.794Z,10.80
2023-05-18T07:18:26.541Z,11.00
2023-05-18T07:20:53.623Z,11.20
2023-05-18T07:23:20.912Z,11.40
2023-05-18T07:25:49.080Z,11.40
2023-05-18T07:28:16.126Z,11.40
2023-05-18T07:30:43.160Z,11.50
2023-05-18T07:33:10.145Z,11.60
2023-05-18T07:35:37.082Z,11.80
2023-05-18T07:38:03.967Z,11.90
2023-05-18T07:40:30.886Z,11.90
2023-05-18T07:42:57.727Z,12.10
2023-05-18T07:45:24.811Z,12.20
2023-05-18T07:47:51.710Z,12.30
2023-05-18T07:50:18.558Z,12.30
2023-05-18T07:52:45.559Z,12.40
2023-05-18T07:55:12.817Z,12.60
2023-05-18T07:57:40.183Z,12.60
2023-05-18T08:00:09.151Z,12.60
2023-05-18T08:02:36.383Z,12.70
2023-05-18T08:05:04.042Z,12.50
2023-05-18T08:07:32.894Z,12.60
2023-05-18T08:09:59.808Z,12.60
2023-05-18T08:12:26.863Z,12.70
2023-05-18T08:14:53.788Z,12.90
2023-05-18T08:17:21.156Z,13.00
2023-05-18T08:19:48.568Z,13.10
2023-05-18T08:22:15.659Z,13.10
2023-05-18T08:24:42.606Z,12.90
2023-05-18T08:27:11.292Z,12.70
2023-05-18T08:29:38.311Z,12.70
2023-05-18T08:32:08.775Z,12.40
2023-05-18T08:34:35.972Z,12.50
2023-05-18T08:37:03.037Z,12.80
2023-05-18T08:39:32.017Z,13.40
2023-05-18T08:42:10.987Z,13.60
2023-05-18T08:44:45.445Z,13.60
2023-05-18T08:47:14.652Z,13.60
2023-05-18T08:49:42.712Z,13.50
2023-05-18T08:52:10.438Z,13.60
2023-05-18T08:54:37.885Z,13.90
2023-05-18T08:57:11.800Z,14.30
2023-05-18T08:59:43.427Z,14.40
2023-05-18T09:02:10.578Z,14.60
2023-05-18T09:04:38.889Z,14.80
2023-05-18T09:07:09.052Z,14.80
2023-05-18T09:09:36.133Z,14.90
2023-05-18T09:12:03.877Z,15.10
2023-05-18T09:14:32.511Z,15.10
2023-05-18T09:16:59.388Z,15.10
2023-05-18T09:19:26.582Z,15.30
2023-05-18T09:21:53.599Z,15.40
2023-05-18T09:24:23.703Z,15.20
2023-05-18T09:26:51.789Z,15.00
2023-05-18T09:29:21.370Z,14.70
2023-05-18T09:31:48.830Z,14.60
2023-05-18T09:34:18.983Z,14.80
2023-05-18T09:36:52.864Z,14.80
2023-05-18T09:39:19.792Z,14.90
2023-05-18T09:41:46.656Z,15.10
2023-05-18T09:44:13.536Z,14.80
2023-05-18T09:46:40.978Z,14.40
2023-05-18T09:49:08.866Z,14.50
2023-05-18T09:51:39.581Z,14.80
2023-05-18T09:54:08.692Z,15.20
2023-05-18T09:56:37.219Z,15.20
2023-05-18T09:59:16.490Z,14.90
2023-05-18T10:02:02.613Z,14.80
2023-05-18T10:04:43.534Z,14.60
2023-05-18T10:07:14.323Z,14.40
2023-05-18T10:09:43.413Z,14.50
2023-05-18T10:12:11.794Z,14.20
2023-05-18T10:14:41.358Z,14.40
2023-05-18T10:19:42.107Z,14.30
2023-05-18T10:22:10.300Z,14.30
2023-05-18T10:24:43.504Z,14.70
2023-05-18T10:27:11.610Z,15.10
2023-05-18T10:29:39.067Z,14.60
2023-05-18T10:32:12.012Z,14.50
2023-05-18T10:34:40.890Z,15.00
2023-05-18T10:37:11.646Z,15.40
2023-05-18T10:39:39.670Z,14.90
2023-05-18T10:42:09.469Z,14.80
2023-05-18T10:44:37.431Z,14.80
2023-05-18T10:47:06.989Z,15.60
2023-05-18T10:49:35.316Z,15.90
2023-05-18T10:52:03.656Z,15.10
2023-05-18T10:54:31.226Z,15.00
2023-05-18T10:56:58.835Z,15.50
2023-05-18T10:59:27.665Z,16.20
2023-05-18T11:01:57.457Z,16.40
2023-05-18T11:04:29.644Z,16.30
2023-05-18T11:07:01.380Z,16.00
2023-05-18T11:09:31.320Z,15.60
2023-05-18T11:11:59.589Z,16.10
2023-05-18T11:14:28.161Z,16.60
2023-05-18T11:17:16.829Z,17.10
2023-05-18T11:20:05.850Z,17.20
2023-05-18T11:22:54.209Z,17.40
2023-05-18T11:25:37.786Z,17.10
2023-05-18T11:28:06.622Z,17.40
2023-05-18T11:30:33.509Z,17.40
2023-05-18T11:33:17.638Z,16.80
2023-05-18T11:36:11.732Z,16.30
2023-05-18T11:38:55.002Z,15.60
2023-05-18T11:41:36.056Z,16.10
2023-05-18T11:44:12.431Z,16.30
2023-05-18T11:46:56.368Z,16.90
2023-05-18T11:49:25.795Z,17.40
2023-05-18T11:51:58.715Z,17.60
2023-05-18T11:54:26.563Z,17.60
2023-05-18T11:56:53.768Z,17.30
2023-05-18T11:59:41.118Z,17.50
2023-05-18T12:02:11.730Z,17.30
2023-05-18T12:04:47.969Z,17.50
2023-05-18T12:07:15.465Z,17.20
2023-05-18T12:09:43.757Z,16.80
2023-05-18T12:12:12.313Z,16.70
2023-05-18T12:14:42.193Z,17.50
2023-05-18T12:17:10.733Z,18.30
2023-05-18T12:19:41.572Z,18.50
2023-05-18T12:22:09.326Z,18.50
2023-05-18T12:24:37.235Z,18.80
2023-05-18T12:27:07.718Z,19.40
2023-05-18T12:29:39.457Z,19.30
2023-05-18T12:32:11.431Z,19.80
2023-05-18T12:34:39.521Z,19.60
2023-05-18T12:37:07.986Z,19.30
2023-05-18T12:39:36.529Z,20.80
2023-05-18T12:42:15.139Z,21.10
2023-05-18T12:44:46.013Z,21.80
2023-05-18T12:47:14.132Z,22.10
2023-05-18T12:49:43.759Z,22.30
2023-05-18T12:52:16.698Z,22.70
2023-05-18T12:54:55.279Z,22.90
2023-05-18T12:57:26.515Z,23.80
2023-05-18T12:59:54.478Z,23.60
2023-05-18T13:02:34.901Z,23.80
2023-05-18T13:05:10.285Z,24.40
2023-05-18T13:07:42.569Z,23.40
2023-05-18T13:10:16.932Z,22.90
2023-05-18T13:12:46.463Z,22.80
2023-05-18T13:15:16.175Z,23.70
2023-05-18T13:17:52.783Z,24.20
2023-05-18T13:20:19.782Z,23.30
2023-05-18T13:22:46.698Z,23.10
2023-05-18T13:25:13.605Z,23.30
2023-05-18T13:27:40.514Z,22.50
2023-05-18T13:30:08.058Z,22.80
2023-05-18T13:32:35.102Z,22.80
2023-05-18T13:35:02.074Z,21.60
2023-05-18T13:37:29.849Z,21.90
2023-05-18T13:39:58.018Z,21.80
2023-05-18T13:42:24.898Z,21.60
2023-05-18T13:44:51.751Z,22.60
2023-05-18T13:47:19.239Z,21.70
2023-05-18T13:49:46.108Z,20.80
2023-05-18T13:52:12.944Z,20.10
2023-05-18T13:54:39.793Z,20.70
2023-05-18T13:57:07.970Z,21.50
2023-05-18T13:59:34.870Z,21.50
2023-05-18T14:02:01.836Z,22.00
2023-05-18T14:04:29.114Z,22.60
2023-05-18T14:06:55.998Z,22.70
2023-05-18T14:09:22.986Z,21.70
2023-05-18T14:11:51.139Z,21.60
2023-05-18T14:14:20.159Z,21.50
2023-05-18T14:16:47.373Z,22.20
2023-05-18T14:19:14.659Z,21.50
2023-05-18T14:21:42.081Z,21.80
2023-05-18T14:24:09.846Z,22.30
2023-05-18T14:26:37.276Z,20.80
2023-05-18T14:29:04.250Z,19.80
2023-05-18T14:31:31.456Z,19.60
2023-05-18T14:33:58.502Z,20.80
2023-05-18T14:36:25.440Z,20.80
2023-05-18T14:38:52.326Z,21.40
2023-05-18T14:41:19.238Z,21.40
2023-05-18T14:43:47.276Z,20.30
2023-05-18T14:46:14.543Z,19.30
2023-05-18T14:48:41.431Z,18.90
2023-05-18T14:51:08.248Z,18.80
2023-05-18T14:53:35.100Z,18.80
2023-05-18T14:56:06.024Z,20.10
2023-05-18T14:58:33.060Z,18.80
2023-05-18T15:00:59.960Z,18.00
2023-05-18T15:03:28.430Z,17.70
2023-05-18T15:05:55.532Z,17.40
2023-05-18T15:08:22.439Z,17.40
2023-05-18T15:10:50.123Z,17.30
2023-05-18T15:13:17.019Z,17.50
2023-05-18T15:15:44.267Z,17.30
2023-05-18T15:18:11.954Z,17.40
2023-05-18T15:20:40.043Z,17.40
2023-05-18T15:23:07.348Z,17.20
2023-05-18T15:25:34.288Z,16.90
2023-05-18T15:28:01.227Z,17.20
2023-05-18T15:30:30.045Z,17.10
2023-05-18T15:32:57.661Z,16.90
2023-05-18T15:35:24.793Z,17.00
2023-05-18T15:37:51.668Z,17.30
2023-05-18T15:40:18.652Z,17.70
2023-05-18T15:42:45.563Z,17.80
2023-05-18T15:45:13.463Z,17.60
2023-05-18T15:47:40.562Z,17.40
2023-05-18T15:50:07.876Z,17.40
2023-05-18T15:52:34.804Z,17.60
2023-05-18T15:55:01.663Z,17.30
2023-05-18T15:57:28.874Z,17.30
2023-05-18T15:59:55.793Z,17.20
2023-05-18T16:02:25.123Z,16.80
2023-05-18T16:04:52.846Z,16.50
2023-05-18T16:07:19.834Z,16.50
2023-05-18T16:09:48.004Z,16.60
2023-05-18T16:12:14.873Z,16.60
2023-05-18T16:14:41.745Z,16.60
2023-05-18T16:17:08.676Z,16.80
2023-05-18T16:19:35.797Z,16.70
2023-05-18T16:22:02.661Z,16.30
2023-05-18T16:24:29.780Z,16.20
2023-05-18T16:26:57.027Z,16.30
2023-05-18T16:29:23.897Z,16.20
2023-05-18T16:31:51.811Z,16.10
2023-05-18T16:34:18.926Z,16.10
2023-05-18T16:36:46.175Z,16.10
2023-05-18T16:39:13.119Z,15.90
2023-05-18T16:41:39.965Z,15.80
2023-05-18T16:44:06.862Z,15.80
2023-05-18T16:46:33.941Z,15.60
2023-05-18T16:49:00.965Z,15.70
2023-05-18T16:51:27.800Z,15.90
2023-05-18T16:53:55.549Z,15.80
2023-05-18T16:56:22.516Z,15.70
2023-05-18T16:58:52.303Z,15.60
2023-05-18T17:01:28.010Z,15.40
2023-05-18T17:03:55.991Z,15.40
2023-05-18T17:06:23.354Z,15.40
2023-05-18T17:08:57.199Z,15.40
2023-05-18T17:11:26.131Z,15.40
2023-05-18T17:13:53.167Z,15.40
2023-05-18T17:16:22.110Z,15.50
2023-05-18T17:18:49.456Z,15.60
2023-05-18T17:21:16.709Z,15.50
2023-05-18T17:23:43.771Z,15.50
2023-05-18T17:26:10.645Z,15.20
2023-05-18T17:28:37.749Z,15.10
2023-05-18T17:31:04.742Z,15.10
2023-05-18T17:33:32.027Z,15.10
2023-05-18T17:35:59.006Z,15.10
2023-05-18T17:38:26.820Z,15.00
2023-05-18T17:40:53.649Z,14.90
2023-05-18T17:43:20.866Z,14.90
2023-05-18T17:45:47.857Z,14.90
2023-05-18T17:48:14.923Z,14.90
2023-05-18T17:50:42.381Z,14.90
2023-05-18T17:53:10.110Z,14.80
2023-05-18T17:55:37.420Z,14.70
2023-05-18T17:58:04.603Z,14.80
2023-05-18T18:00:32.743Z,14.70
2023-05-18T18:03:01.094Z,14.60
2023-05-18T18:05:28.286Z,14.70
2023-05-18T18:07:57.478Z,14.60
2023-05-18T18:10:25.016Z,14.60
2023-05-18T18:12:51.894Z,14.60
2023-05-18T18:15:19.077Z,14.50
2023-05-18T18:17:46.281Z,14.40
2023-05-18T18:20:13.261Z,14.40
2023-05-18T18:22:40.449Z,14.30
2023-05-18T18:25:07.593Z,14.20
2023-05-18T18:27:34.781Z,14.20
2023-05-18T18:30:01.764Z,14.30
2023-05-18T18:32:31.061Z,14.20
2023-05-18T18:34:58.308Z,14.10
2023-05-18T18:37:25.800Z,14.10
2023-05-18T18:39:52.697Z,14.00
2023-05-18T18:42:21.449Z,13.90
2023-05-18T18:44:48.598Z,13.80
2023-05-18T18:47:15.640Z,13.70
2023-05-18T18:49:44.284Z,13.70
2023-05-18T18:52:13.112Z,13.60
2023-05-18T18:54:41.338Z,13.50
2023-05-18T18:57:08.465Z,13.40
2023-05-18T18:59:35.831Z,13.40
2023-05-18T19:02:03.061Z,13.40
2023-05-18T19:04:30.922Z,13.40
2023-05-18T19:07:02.696Z,13.30
2023-05-18T19:09:34.882Z,13.30
2023-05-18T19:12:02.885Z,13.30
2023-05-18T19:14:30.042Z,13.20
2023-05-18T19:16:58.125Z,13.30
2023-05-18T19:19:25.103Z,13.20
2023-05-18T19:21:52.006Z,13.10
2023-05-18T19:24:18.830Z,13.00
2023-05-18T19:26:45.743Z,13.00
2023-05-18T19:29:13.615Z,12.90
2023-05-18T19:31:40.730Z,12.90
2023-05-18T19:34:07.664Z,12.90
2023-05-18T19:36:35.846Z,12.90
2023-05-18T19:39:02.943Z,12.90
2023-05-18T19:41:30.280Z,12.80
2023-05-18T19:43:57.194Z,12.80
2023-05-18T19:46:24.118Z,12.80
2023-05-18T19:48:51.044Z,12.80
2023-05-18T19:51:18.742Z,12.80
2023-05-18T19:53:45.792Z,12.70
2023-05-18T19:56:13.630Z,12.70
2023-05-18T19:58:40.634Z,12.80
2023-05-18T20:01:09.884Z,12.70
2023-05-18T20:03:42.425Z,12.70
2023-05-18T20:06:10.635Z,12.60
2023-05-18T20:08:38.369Z,12.60
2023-05-18T20:11:05.593Z,12.60
2023-05-18T20:13:33.019Z,12.50
2023-05-18T20:16:00.302Z,12.50
2023-05-18T20:18:28.653Z,12.50
2023-05-18T20:20:57.510Z,12.50
2023-05-18T20:23:24.673Z,12.50
2023-05-18T20:25:51.659Z,12.50
2023-05-18T20:28:18.534Z,12.50
2023-05-18T20:30:45.600Z,12.50
2023-05-18T20:33:13.314Z,12.50
2023-05-18T20:35:40.245Z,12.40
2023-05-18T20:38:07.477Z,12.40
2023-05-18T20:40:37.822Z,12.40
2023-05-18T20:43:06.127Z,12.50
2023-05-18T20:45:33.080Z,12.50
2023-05-18T20:48:00.338Z,12.50
2023-05-18T20:50:27.574Z,12.60
2023-05-18T20:52:54.449Z,12.60
2023-05-18T20:55:21.514Z,12.50
2023-05-18T20:57:51.154Z,12.60
2023-05-18T21:00:18.458Z,12.60
2023-05-18T21:02:46.778Z,12.60
2023-05-18T21:05:14.421Z,12.60
2023-05-18T21:07:41.274Z,12.50
2023-05-18T21:10:09.501Z,12.50
2023-05-18T21:12:36.764Z,12.50
2023-05-18T21:15:04.201Z,12.50
2023-05-18T21:17:32.175Z,12.40
2023-05-18T21:19:59.226Z,12.40
2023-05-18T21:22:26.118Z,12.40
2023-05-18T21:24:52.946Z,12.40
2023-05-18T21:27:19.834Z,12.30
2023-05-18T21:29:46.646Z,12.30
2023-05-18T21:32:13.910Z,12.40
2023-05-18T21:34:43.477Z,12.40
2023-05-18T21:37:10.912Z,12.30
2023-05-18T21:39:37.904Z,12.30
2023-05-18T21:42:04.965Z,12.30
2023-05-18T21:44:32.359Z,12.30
2023-05-18T21:46:59.207Z,12.30
2023-05-18T21:49:26.120Z,12.30
2023-05-18T21:51:52.990Z,12.20
2023-05-18T21:54:19.894Z,12.20
2023-05-18T21:56:46.781Z,12.30
2023-05-18T21:59:13.618Z,12.20
2023-05-18T22:01:40.534Z,12.20
2023-05-18T22:04:07.494Z,12.20
2023-05-18T22:06:34.361Z,12.20
2023-05-18T22:09:01.244Z,12.10
2023-05-18T22:11:28.129Z,12.10
2023-05-18T22:13:55.048Z,12.10
2023-05-18T22:16:21.945Z,12.10
2023-05-18T22:18:48.829Z,12.00
2023-05-18T22:21:15.750Z,11.90
2023-05-18T22:23:42.658Z,11.80
2023-05-18T22:26:09.512Z,11.80
2023-05-18T22:28:36.411Z,11.80
2023-05-18T22:31:03.342Z,11.80
2023-05-18T22:33:30.597Z,11.80
2023-05-18T22:35:57.570Z,11.60
2023-05-18T22:38:24.468Z,11.60
2023-05-18T22:40:54.000Z,11.60
2023-05-18T22:43:21.683Z,11.60
2023-05-18T22:45:48.955Z,11.50
2023-05-18T22:48:15.983Z,11.50
2023-05-18T22:50:42.853Z,11.40
2023-05-18T22:53:10.423Z,11.40
2023-05-18T22:55:37.633Z,11.50
2023-05-18T22:58:04.541Z,11.40
2023-05-18T23:00:31.616Z,11.30
2023-05-18T23:02:59.000Z,11.30
2023-05-18T23:05:27.640Z,11.20
2023-05-18T23:07:57.709Z,11.10
2023-05-18T23:10:26.427Z,11.10
2023-05-18T23:12:55.652Z,11.10
2023-05-18T23:15:23.128Z,11.10
2023-05-18T23:17:50.316Z,11.10
2023-05-18T23:20:17.249Z,11.10
2023-05-18T23:22:44.440Z,11.20
2023-05-18T23:25:11.658Z,11.30
2023-05-18T23:27:38.539Z,11.30
2023-05-18T23:30:06.259Z,11.30
2023-05-18T23:32:34.955Z,11.30
2023-05-18T23:35:04.352Z,11.30
2023-05-18T23:37:32.938Z,11.30
2023-05-18T23:40:03.663Z,11.30
2023-05-18T23:42:31.244Z,11.40
2023-05-18T23:44:58.404Z,11.40
2023-05-18T23:47:25.615Z,11.40
2023-05-18T23:49:53.000Z,11.40
2023-05-18T23:52:22.971Z,11.30
2023-05-18T23:54:53.429Z,11.40
2023-05-18T23:57:20.983Z,11.40
2023-05-18T23:59:48.612Z,11.40
